createdAt,value
2022-09-09T12:42:17.958Z,100.00
2022-09-09T12:43:25.037Z,100.00
2022-09-09T12:44:29.583Z,100.00
2022-09-09T12:45:37.269Z,100.00
2022-09-09T12:46:42.042Z,100.00
2022-09-09T12:47:50.989Z,100.00
2022-09-09T12:48:55.506Z,100.00
2022-09-09T12:50:00.458Z,100.00
2022-09-09T12:51:02.999Z,100.00
2022-09-09T12:52:11.543Z,100.00
2022-09-09T12:53:26.082Z,100.00
2022-09-09T12:54:31.791Z,98.52
2022-09-09T12:55:41.518Z,96.45
2022-09-09T12:56:50.459Z,88.78
2022-09-09T12:57:56.563Z,75.35
2022-09-09T12:58:59.869Z,67.01
2022-09-09T13:00:10.880Z,65.87
2022-09-09T13:01:26.011Z,60.19
2022-09-09T13:02:29.234Z,57.43
2022-09-09T13:03:35.024Z,55.26
2022-09-09T13:04:37.284Z,54.63
2022-09-09T13:05:42.763Z,53.71
2022-09-09T13:06:44.786Z,50.61
2022-09-09T13:07:49.457Z,50.58
2022-09-09T13:08:52.474Z,49.24
2022-09-09T13:09:57.096Z,49.90
2022-09-09T13:11:07.843Z,53.50
2022-09-09T13:12:15.661Z,47.66
2022-09-09T13:13:24.973Z,45.91
2022-09-09T13:14:31.525Z,45.71
2022-09-09T13:15:36.237Z,42.40
2022-09-09T13:16:43.143Z,45.95
2022-09-09T13:17:54.730Z,44.70
2022-09-09T13:18:57.222Z,41.53
2022-09-09T13:20:01.908Z,42.11
2022-09-09T13:21:04.334Z,42.10
2022-09-09T13:22:16.269Z,43.83
2022-09-09T13:23:23.397Z,41.91
2022-09-09T13:24:34.283Z,42.67
2022-09-09T13:25:39.604Z,42.29
2022-09-09T13:26:58.602Z,42.10
2022-09-09T13:28:05.355Z,41.28
2022-09-09T13:29:21.317Z,39.63
2022-09-09T13:30:28.941Z,38.16
2022-09-09T13:31:37.164Z,38.81
2022-09-09T13:32:39.172Z,39.16
2022-09-09T13:33:43.776Z,38.50
2022-09-09T13:34:52.622Z,40.31
2022-09-09T13:36:00.010Z,42.32
2022-09-09T13:37:04.808Z,47.64
2022-09-09T13:38:13.292Z,45.28
2022-09-09T13:39:18.808Z,44.47
2022-09-09T13:40:25.483Z,41.82
2022-09-09T13:41:40.027Z,40.24
2022-09-09T13:42:46.107Z,38.58
2022-09-09T13:43:51.920Z,38.11
2022-09-09T13:44:54.694Z,39.52
2022-09-09T13:46:02.442Z,37.93
2022-09-09T13:47:10.500Z,39.99
2022-09-09T13:48:22.191Z,41.32
2022-09-09T13:49:25.505Z,44.62
2022-09-09T13:50:32.264Z,49.35
2022-09-09T13:51:38.284Z,47.88
2022-09-09T13:52:42.910Z,44.16
2022-09-09T13:53:48.730Z,46.21
2022-09-09T13:54:55.131Z,41.78
2022-09-09T13:55:58.030Z,44.43
2022-09-09T13:57:02.682Z,42.47
2022-09-09T13:58:07.298Z,41.19
2022-09-09T13:59:15.690Z,39.99
2022-09-09T14:00:17.881Z,43.08
2022-09-09T14:01:25.280Z,43.35
2022-09-09T14:02:32.313Z,46.39
2022-09-09T14:03:38.370Z,52.46
2022-09-09T14:04:42.270Z,59.51
2022-09-09T14:05:48.125Z,60.53
2022-09-09T14:06:53.752Z,57.91
2022-09-09T14:07:55.987Z,63.08
2022-09-09T14:09:00.591Z,64.03
2022-09-09T14:10:02.831Z,65.52
2022-09-09T14:11:07.696Z,68.17
2022-09-09T14:12:11.999Z,60.92
2022-09-09T14:13:19.396Z,66.23
2022-09-09T14:14:21.392Z,64.46
2022-09-09T14:15:26.176Z,64.54
2022-09-09T14:16:28.882Z,63.64
2022-09-09T14:17:33.487Z,64.94
2022-09-09T14:18:35.555Z,63.38
2022-09-09T14:19:40.826Z,67.58
2022-09-09T14:20:42.830Z,64.02
2022-09-09T14:21:47.427Z,61.78
2022-09-09T14:22:49.439Z,63.25
2022-09-09T14:23:54.105Z,59.94
2022-09-09T14:24:56.072Z,56.58
2022-09-09T14:26:00.665Z,55.55
2022-09-09T14:27:03.107Z,52.28
2022-09-09T14:28:07.709Z,53.28
2022-09-09T14:29:12.185Z,50.33
2022-09-09T14:30:17.028Z,51.55
2022-09-09T14:31:22.259Z,52.12
2022-09-09T14:32:24.316Z,48.12
2022-09-09T14:33:30.256Z,52.44
2022-09-09T14:34:33.429Z,46.36
2022-09-09T14:35:38.092Z,46.09
2022-09-09T14:36:40.122Z,48.87
2022-09-09T14:37:45.737Z,49.91
2022-09-09T14:38:48.459Z,52.31
2022-09-09T14:39:55.120Z,55.51
2022-09-09T14:40:57.606Z,53.12
2022-09-09T14:42:02.202Z,55.00
2022-09-09T14:43:04.680Z,57.99
2022-09-09T14:44:09.269Z,52.22
2022-09-09T14:45:14.249Z,48.40
2022-09-09T14:46:20.879Z,49.87
2022-09-09T14:47:23.227Z,49.43
2022-09-09T14:48:27.896Z,40.10
2022-09-09T14:49:29.865Z,41.23
2022-09-09T14:50:35.915Z,38.32
2022-09-09T14:51:38.162Z,39.91
2022-09-09T14:52:42.723Z,43.06
2022-09-09T14:53:45.694Z,42.66
2022-09-09T14:54:50.600Z,45.49
2022-09-09T14:55:52.649Z,44.16
2022-09-09T14:56:58.186Z,43.74
2022-09-09T14:58:00.191Z,41.86
2022-09-09T14:59:05.045Z,39.96
2022-09-09T15:00:08.693Z,38.71
2022-09-09T15:01:18.742Z,36.51
2022-09-09T15:02:20.863Z,36.33
2022-09-09T15:03:25.676Z,39.81
2022-09-09T15:04:28.780Z,36.34
2022-09-09T15:05:33.465Z,39.41
2022-09-09T15:06:39.543Z,43.52
2022-09-09T15:07:44.584Z,40.91
2022-09-09T15:08:47.768Z,41.93
2022-09-09T15:09:53.771Z,45.45
2022-09-09T15:11:01.109Z,45.57
2022-09-09T15:12:05.988Z,48.18
2022-09-09T15:13:07.985Z,46.65
2022-09-09T15:14:13.247Z,46.91
2022-09-09T15:15:18.325Z,48.48
2022-09-09T15:16:25.416Z,51.68
2022-09-09T15:17:30.228Z,51.81
2022-09-09T15:18:33.371Z,52.47
2022-09-09T15:19:37.984Z,52.69
2022-09-09T15:20:40.472Z,54.48
2022-09-09T15:21:45.474Z,54.42
2022-09-09T15:22:47.544Z,53.21
2022-09-09T15:23:52.950Z,54.91
2022-09-09T15:24:54.932Z,55.12
2022-09-09T15:25:59.933Z,55.80
2022-09-09T15:27:05.273Z,61.16
2022-09-09T15:28:07.294Z,54.66
2022-09-09T15:29:12.461Z,52.78
2022-09-09T15:30:14.752Z,52.92
2022-09-09T15:31:21.577Z,51.07
2022-09-09T15:32:28.803Z,47.22
2022-09-09T15:33:30.801Z,43.56
2022-09-09T15:34:35.840Z,41.77
2022-09-09T15:35:37.837Z,39.81
2022-09-09T15:36:44.276Z,40.05
2022-09-09T15:37:46.615Z,42.06
2022-09-09T15:38:51.648Z,44.03
2022-09-09T15:39:56.272Z,44.16
2022-09-09T15:40:59.595Z,43.91
2022-09-09T15:42:04.481Z,44.76
2022-09-09T15:43:06.720Z,45.15
2022-09-09T15:44:12.119Z,46.55
2022-09-09T15:45:14.211Z,46.77
2022-09-09T15:46:31.395Z,43.49
2022-09-09T15:47:38.706Z,40.62
2022-09-09T15:48:40.704Z,39.37
2022-09-09T15:49:45.301Z,40.21
2022-09-09T15:50:47.328Z,36.64
2022-09-09T15:51:56.186Z,37.14
2022-09-09T15:52:58.391Z,38.64
2022-09-09T15:54:03.227Z,36.83
2022-09-09T15:55:09.336Z,34.04
2022-09-09T15:56:12.138Z,34.33
2022-09-09T15:57:17.294Z,35.54
2022-09-09T15:58:20.348Z,38.81
2022-09-09T15:59:25.044Z,42.22
2022-09-09T16:00:27.265Z,42.23
2022-09-09T16:01:32.225Z,43.29
2022-09-09T16:02:39.602Z,45.37
2022-09-09T16:03:45.657Z,44.22
2022-09-09T16:04:50.388Z,45.14
2022-09-09T16:05:52.762Z,45.59
2022-09-09T16:06:59.503Z,47.24
2022-09-09T16:08:05.298Z,46.59
2022-09-09T16:09:11.324Z,47.44
2022-09-09T16:10:14.696Z,47.72
2022-09-09T16:11:21.150Z,46.15
2022-09-09T16:12:26.508Z,47.37
2022-09-09T16:13:29.018Z,46.08
2022-09-09T16:14:36.807Z,46.29
2022-09-09T16:15:39.150Z,48.77
2022-09-09T16:16:43.780Z,48.14
2022-09-09T16:17:48.385Z,49.46
2022-09-09T16:18:54.614Z,48.29
2022-09-09T16:19:59.267Z,49.26
2022-09-09T16:21:01.527Z,51.10
2022-09-09T16:22:07.660Z,49.17
2022-09-09T16:23:10.045Z,50.87
2022-09-09T16:24:16.729Z,50.88
2022-09-09T16:25:19.690Z,53.09
2022-09-09T16:26:24.606Z,52.00
2022-09-09T16:27:26.722Z,52.72
2022-09-09T16:28:31.783Z,51.79
2022-09-09T16:29:37.246Z,52.20
2022-09-09T16:30:40.066Z,56.30
2022-09-09T16:31:45.445Z,54.62
2022-09-09T16:32:50.702Z,54.48
2022-09-09T16:33:55.582Z,54.07
2022-09-09T16:34:57.630Z,54.47
2022-09-09T16:36:02.433Z,54.71
2022-09-09T16:37:07.079Z,55.03
2022-09-09T16:38:09.149Z,55.65
2022-09-09T16:39:15.784Z,56.63
2022-09-09T16:40:18.442Z,55.78
2022-09-09T16:41:23.137Z,56.58
2022-09-09T16:42:25.269Z,56.63
2022-09-09T16:43:29.945Z,57.06
2022-09-09T16:44:34.674Z,56.81
2022-09-09T16:45:43.400Z,58.00
2022-09-09T16:46:49.867Z,59.21
2022-09-09T16:47:54.840Z,57.97
2022-09-09T16:49:00.974Z,58.79
2022-09-09T16:50:03.077Z,59.51
2022-09-09T16:51:09.758Z,58.98
2022-09-09T16:52:18.432Z,60.26
2022-09-09T16:53:22.571Z,59.54
2022-09-09T16:54:28.378Z,59.52
2022-09-09T16:55:31.072Z,61.26
2022-09-09T16:56:38.049Z,60.78
2022-09-09T16:57:40.428Z,61.69
2022-09-09T16:58:46.387Z,60.64
2022-09-09T16:59:51.477Z,60.72
2022-09-09T17:00:59.321Z,62.04
2022-09-09T17:02:06.077Z,61.62
2022-09-09T17:03:13.711Z,60.42
2022-09-09T17:04:21.825Z,61.06
2022-09-09T17:05:24.306Z,62.64
2022-09-09T17:06:30.159Z,61.91
2022-09-09T17:07:33.613Z,63.97
2022-09-09T17:08:38.265Z,60.43
2022-09-09T17:09:43.091Z,60.30
2022-09-09T17:10:45.448Z,60.66
2022-09-09T17:11:51.850Z,59.89
2022-09-09T17:12:54.153Z,60.41
2022-09-09T17:14:01.345Z,61.32
2022-09-09T17:15:04.624Z,61.34
2022-09-09T17:16:09.562Z,61.68
2022-09-09T17:17:31.102Z,63.30
2022-09-09T17:18:39.806Z,64.30
2022-09-09T17:19:44.447Z,65.78
2022-09-09T17:20:47.409Z,68.65
2022-09-09T17:22:15.562Z,70.23
2022-09-09T17:23:17.092Z,73.69
2022-09-09T17:24:22.812Z,72.75
2022-09-09T17:25:25.436Z,72.15
2022-09-09T17:26:32.491Z,72.86
2022-09-09T17:27:37.277Z,75.33
2022-09-09T17:28:43.276Z,74.13
2022-09-09T17:29:47.956Z,75.65
2022-09-09T17:30:53.749Z,77.17
2022-09-09T17:31:59.116Z,77.91
2022-09-09T17:33:01.291Z,78.26
2022-09-09T17:34:08.916Z,79.29
2022-09-09T17:35:10.935Z,78.63
2022-09-09T17:36:18.480Z,78.07
2022-09-09T17:37:20.590Z,77.75
2022-09-09T17:38:28.662Z,78.11
2022-09-09T17:39:33.470Z,79.57
2022-09-09T17:40:35.506Z,80.41
2022-09-09T17:41:41.851Z,80.38
2022-09-09T17:42:43.893Z,81.70
2022-09-09T17:43:48.763Z,82.02
2022-09-09T17:44:50.797Z,80.86
2022-09-09T17:45:55.469Z,81.39
2022-09-09T17:47:00.478Z,81.37
2022-09-09T17:48:03.761Z,81.31
2022-09-09T17:49:13.030Z,81.05
2022-09-09T17:50:19.549Z,80.52
2022-09-09T17:51:25.649Z,80.68
2022-09-09T17:52:32.787Z,81.20
2022-09-09T17:53:39.030Z,82.98
2022-09-09T17:54:43.602Z,83.65
2022-09-09T17:55:48.789Z,81.34
2022-09-09T17:56:55.736Z,82.60
2022-09-09T17:57:57.723Z,81.48
2022-09-09T17:59:03.532Z,83.63
2022-09-09T18:00:10.749Z,83.88
2022-09-09T18:01:15.522Z,85.46
2022-09-09T18:02:20.403Z,84.55
2022-09-09T18:03:22.600Z,84.99
2022-09-09T18:04:29.842Z,84.27
2022-09-09T18:05:31.879Z,85.94
2022-09-09T18:06:39.798Z,85.24
2022-09-09T18:07:44.354Z,85.32
2022-09-09T18:08:49.719Z,85.62
2022-09-09T18:09:54.309Z,86.30
2022-09-09T18:10:56.669Z,86.83
2022-09-09T18:12:02.622Z,87.70
2022-09-09T18:13:04.568Z,88.54
2022-09-09T18:14:10.660Z,87.90
2022-09-09T18:15:20.945Z,87.71
2022-09-09T18:16:36.114Z,87.47
2022-09-09T18:17:40.739Z,87.39
2022-09-09T18:18:42.767Z,89.27
2022-09-09T18:19:49.964Z,87.79
2022-09-09T18:20:59.135Z,86.92
2022-09-09T18:22:04.969Z,85.48
2022-09-09T18:23:06.968Z,85.68
2022-09-09T18:24:12.562Z,85.22
2022-09-09T18:25:14.963Z,84.65
2022-09-09T18:26:22.666Z,86.04
2022-09-09T18:27:28.677Z,85.94
2022-09-09T18:28:30.691Z,85.77
2022-09-09T18:29:35.398Z,86.18
2022-09-09T18:30:40.415Z,85.82
2022-09-09T18:31:46.187Z,84.86
2022-09-09T18:32:53.091Z,86.08
2022-09-09T18:33:56.985Z,86.66
2022-09-09T18:35:04.160Z,86.59
2022-09-09T18:36:07.893Z,85.83
2022-09-09T18:37:13.369Z,86.19
2022-09-09T18:38:17.425Z,86.08
2022-09-09T18:39:23.494Z,85.66
2022-09-09T18:40:28.161Z,86.42
2022-09-09T18:41:33.074Z,87.94
2022-09-09T18:42:37.599Z,88.48
2022-09-09T18:43:39.701Z,89.51
2022-09-09T18:44:44.458Z,90.34
2022-09-09T18:45:46.550Z,87.99
2022-09-09T18:46:52.606Z,90.87
2022-09-09T18:47:54.666Z,89.81
2022-09-09T18:49:00.132Z,92.46
2022-09-09T18:50:05.542Z,92.44
2022-09-09T18:51:12.395Z,93.40
2022-09-09T18:52:17.101Z,95.48
2022-09-09T18:53:19.139Z,97.06
2022-09-09T18:54:25.754Z,97.14
2022-09-09T18:55:29.111Z,97.67
2022-09-09T18:56:35.030Z,97.50
2022-09-09T18:57:38.585Z,97.92
2022-09-09T18:58:44.171Z,98.18
2022-09-09T18:59:49.309Z,96.09
2022-09-09T19:00:51.434Z,96.47
2022-09-09T19:01:56.912Z,96.25
2022-09-09T19:02:58.958Z,96.23
2022-09-09T19:04:03.687Z,96.76
2022-09-09T19:05:12.054Z,99.50
2022-09-09T19:06:17.156Z,95.83
2022-09-09T19:07:22.774Z,96.59
2022-09-09T19:08:24.902Z,98.76
2022-09-09T19:09:32.505Z,99.24
2022-09-09T19:10:36.596Z,100.00
2022-09-09T19:11:42.395Z,100.00
2022-09-09T19:12:44.564Z,100.00
2022-09-09T19:13:54.486Z,100.00
2022-09-09T19:14:59.476Z,100.00
2022-09-09T19:16:04.756Z,100.00
2022-09-09T19:17:09.511Z,100.00
2022-09-09T19:18:11.560Z,100.00
2022-09-09T19:19:19.163Z,100.00
2022-09-09T19:20:25.305Z,100.00
2022-09-09T19:21:32.436Z,100.00
2022-09-09T19:22:34.595Z,100.00
2022-09-09T19:23:39.250Z,100.00
2022-09-09T19:24:41.531Z,100.00
2022-09-09T19:25:46.294Z,100.00
2022-09-09T19:26:50.337Z,100.00
2022-09-09T19:27:55.247Z,100.00
2022-09-09T19:28:58.878Z,100.00
2022-09-09T19:30:03.457Z,100.00
2022-09-09T19:31:06.583Z,100.00
2022-09-09T19:33:34.172Z,100.00
2022-09-09T19:34:39.039Z,100.00
2022-09-09T19:35:45.898Z,100.00
2022-09-09T19:36:51.836Z,100.00
2022-09-09T19:37:54.673Z,100.00
2022-09-09T19:39:00.179Z,100.00
2022-09-09T19:40:06.696Z,100.00
2022-09-09T19:41:11.437Z,100.00
2022-09-09T19:42:16.025Z,100.00
2022-09-09T19:43:17.992Z,100.00
2022-09-09T19:44:22.686Z,100.00
2022-09-09T19:45:27.690Z,100.00
2022-09-09T19:46:34.642Z,100.00
2022-09-09T19:47:39.284Z,100.00
2022-09-09T19:48:42.799Z,100.00
2022-09-09T19:49:47.995Z,100.00
2022-09-09T19:50:53.045Z,100.00
2022-09-09T19:51:57.975Z,100.00
2022-09-09T19:53:00.193Z,100.00
2022-09-09T19:54:08.714Z,100.00
2022-09-09T19:55:13.966Z,100.00
2022-09-09T19:56:17.287Z,100.00
2022-09-09T19:57:23.722Z,100.00
2022-09-09T19:58:25.714Z,100.00
2022-09-09T19:59:31.363Z,100.00
2022-09-09T20:00:39.426Z,100.00
2022-09-09T20:01:47.223Z,100.00
2022-09-09T20:03:15.294Z,100.00
2022-09-09T20:04:17.869Z,100.00
2022-09-09T20:05:19.956Z,100.00
2022-09-09T20:06:30.990Z,100.00
2022-09-09T20:07:33.446Z,100.00
2022-09-09T20:08:40.247Z,100.00
2022-09-09T20:09:45.040Z,100.00
2022-09-09T20:10:54.447Z,100.00
2022-09-09T20:11:59.538Z,100.00
2022-09-09T20:13:01.569Z,100.00
2022-09-09T20:14:06.395Z,100.00
2022-09-09T20:15:12.960Z,100.00
2022-09-09T20:16:17.486Z,100.00
2022-09-09T20:17:22.197Z,100.00
2022-09-09T20:18:24.649Z,100.00
2022-09-09T20:19:29.771Z,100.00
2022-09-09T20:20:31.824Z,100.00
2022-09-09T20:21:45.181Z,100.00
2022-09-09T20:22:49.438Z,100.00
2022-09-09T20:23:55.872Z,100.00
2022-09-09T20:24:57.901Z,100.00
2022-09-09T20:26:06.666Z,100.00
2022-09-09T20:27:09.468Z,100.00
2022-09-09T20:28:14.290Z,100.00
2022-09-09T20:29:21.306Z,100.00
2022-09-09T20:30:23.327Z,100.00
2022-09-09T20:31:29.857Z,100.00
2022-09-09T20:32:34.821Z,100.00
2022-09-09T20:33:37.022Z,100.00
2022-09-09T20:34:45.223Z,100.00
2022-09-09T20:35:49.857Z,100.00
2022-09-09T20:36:57.728Z,100.00
2022-09-09T20:38:00.895Z,100.00
2022-09-09T20:39:07.435Z,100.00
2022-09-09T20:40:10.310Z,100.00
2022-09-09T20:41:15.087Z,100.00
2022-09-09T20:42:19.537Z,100.00
2022-09-09T20:43:24.206Z,100.00
2022-09-09T20:44:29.769Z,100.00
2022-09-09T20:45:32.330Z,100.00
2022-09-09T20:46:39.203Z,100.00
2022-09-09T20:47:41.439Z,100.00
2022-09-09T20:48:46.173Z,100.00
2022-09-09T20:49:50.828Z,100.00
2022-09-09T20:50:52.894Z,100.00
2022-09-09T20:52:00.142Z,100.00
2022-09-09T20:53:02.186Z,100.00
2022-09-09T20:54:09.308Z,100.00
2022-09-09T20:55:11.355Z,100.00
2022-09-09T20:56:18.219Z,100.00
2022-09-09T20:57:23.308Z,100.00
2022-09-09T20:58:28.519Z,100.00
2022-09-09T20:59:35.448Z,100.00
2022-09-09T21:00:37.480Z,100.00
2022-09-09T21:01:42.805Z,100.00
2022-09-09T21:02:45.484Z,100.00
2022-09-09T21:03:50.891Z,100.00
2022-09-09T21:04:55.557Z,100.00
2022-09-09T21:05:58.399Z,100.00
2022-09-09T21:07:07.592Z,100.00
2022-09-09T21:08:09.742Z,100.00
2022-09-09T21:09:14.418Z,100.00
2022-09-09T21:10:17.630Z,100.00
2022-09-09T21:11:22.276Z,100.00
2022-09-09T21:12:24.432Z,100.00
2022-09-09T21:13:29.050Z,100.00
2022-09-09T21:14:32.785Z,100.00
2022-09-09T21:15:38.156Z,100.00
2022-09-09T21:16:43.105Z,100.00
2022-09-09T21:17:45.136Z,100.00
2022-09-09T21:18:50.027Z,100.00
2022-09-09T21:19:55.294Z,100.00
2022-09-09T21:21:02.169Z,100.00
2022-09-09T21:22:07.105Z,100.00
2022-09-09T21:23:11.938Z,100.00
2022-09-09T21:24:16.789Z,100.00
2022-09-09T21:25:18.772Z,100.00
2022-09-09T21:26:23.419Z,100.00
2022-09-09T21:27:25.844Z,100.00
2022-09-09T21:28:31.405Z,100.00
2022-09-09T21:29:33.550Z,100.00
2022-09-09T21:30:43.973Z,100.00
2022-09-09T21:31:46.564Z,100.00
2022-09-09T21:32:51.593Z,100.00
2022-09-09T21:33:53.635Z,100.00
2022-09-09T21:34:58.222Z,100.00
2022-09-09T21:36:03.438Z,100.00
2022-09-09T21:37:12.220Z,100.00
2022-09-09T21:38:17.407Z,100.00
2022-09-09T21:39:22.251Z,100.00
2022-09-09T21:40:24.799Z,100.00
2022-09-09T21:41:29.445Z,100.00
2022-09-09T21:42:31.772Z,100.00
2022-09-09T21:43:36.554Z,100.00
2022-09-09T21:44:41.170Z,100.00
2022-09-09T21:45:43.359Z,100.00
2022-09-09T21:46:48.078Z,100.00
2022-09-09T21:47:51.200Z,100.00
2022-09-09T21:48:56.654Z,100.00
2022-09-09T21:50:01.083Z,100.00
2022-09-09T21:51:07.913Z,100.00
2022-09-09T21:52:12.560Z,100.00
2022-09-09T21:53:19.151Z,100.00
2022-09-09T21:54:21.439Z,100.00
2022-09-09T21:55:26.001Z,100.00
2022-09-09T21:56:28.138Z,100.00
2022-09-09T21:57:32.846Z,100.00
2022-09-09T21:58:35.428Z,100.00
2022-09-09T21:59:40.719Z,100.00
2022-09-09T22:00:45.836Z,100.00
2022-09-09T22:01:50.604Z,100.00
2022-09-09T22:02:52.801Z,100.00
2022-09-09T22:03:57.459Z,100.00
2022-09-09T22:04:59.463Z,100.00
2022-09-09T22:06:08.593Z,100.00
2022-09-09T22:07:17.166Z,100.00
2022-09-09T22:08:21.884Z,100.00
2022-09-09T22:09:26.726Z,100.00
2022-09-09T22:10:29.020Z,100.00
2022-09-09T22:11:33.752Z,100.00
2022-09-09T22:12:36.079Z,100.00
2022-09-09T22:13:41.648Z,100.00
2022-09-09T22:14:43.689Z,100.00
2022-09-09T22:15:49.275Z,100.00
2022-09-09T22:16:51.634Z,100.00
2022-09-09T22:17:56.351Z,100.00
2022-09-09T22:19:03.649Z,100.00
2022-09-09T22:20:07.451Z,100.00
2022-09-09T22:21:14.208Z,100.00
2022-09-09T22:22:19.668Z,100.00
2022-09-09T22:23:24.621Z,100.00
2022-09-09T22:24:27.689Z,100.00
2022-09-09T22:25:36.336Z,100.00
2022-09-09T22:26:39.189Z,100.00
2022-09-09T22:27:43.771Z,100.00
2022-09-09T22:28:45.757Z,100.00
2022-09-09T22:29:50.364Z,100.00
2022-09-09T22:30:52.446Z,100.00
2022-09-09T22:31:57.170Z,100.00
2022-09-09T22:32:59.245Z,100.00
2022-09-09T22:34:03.827Z,100.00
2022-09-09T22:35:07.777Z,100.00
2022-09-09T22:36:12.781Z,100.00
2022-09-09T22:37:14.805Z,100.00
2022-09-09T22:38:22.355Z,100.00
2022-09-09T22:39:24.763Z,100.00
2022-09-09T22:40:30.001Z,100.00
2022-09-09T22:41:32.381Z,100.00
2022-09-09T22:42:37.512Z,100.00
2022-09-09T22:43:42.349Z,100.00
2022-09-09T22:44:46.949Z,100.00
2022-09-09T22:45:50.105Z,100.00
2022-09-09T22:46:55.412Z,100.00
2022-09-09T22:47:57.425Z,100.00
2022-09-09T22:49:03.838Z,100.00
2022-09-09T22:50:07.283Z,100.00
2022-09-09T22:51:14.228Z,100.00
2022-09-09T22:52:17.201Z,100.00
2022-09-09T22:53:24.403Z,100.00
2022-09-09T22:54:27.074Z,100.00
2022-09-09T22:55:32.295Z,100.00
2022-09-09T22:56:37.317Z,100.00
2022-09-09T22:57:39.291Z,100.00
2022-09-09T22:58:43.934Z,100.00
2022-09-09T22:59:46.028Z,100.00
2022-09-09T23:00:51.324Z,100.00
2022-09-09T23:01:57.149Z,100.00
2022-09-09T23:02:59.339Z,100.00
2022-09-09T23:04:04.636Z,100.00
2022-09-09T23:05:08.645Z,100.00
2022-09-09T23:06:22.363Z,100.00
2022-09-09T23:07:24.616Z,100.00
2022-09-09T23:08:34.528Z,100.00
2022-09-09T23:09:36.558Z,100.00
2022-09-09T23:10:43.281Z,100.00
2022-09-09T23:11:46.946Z,100.00
2022-09-09T23:12:51.559Z,100.00
2022-09-09T23:13:56.050Z,100.00
2022-09-09T23:15:00.614Z,100.00
2022-09-09T23:16:09.488Z,100.00
2022-09-09T23:17:18.573Z,100.00
2022-09-09T23:18:22.409Z,100.00
2022-09-09T23:19:28.821Z,100.00
2022-09-09T23:20:32.187Z,100.00
2022-09-09T23:21:37.494Z,100.00
2022-09-09T23:22:40.615Z,100.00
2022-09-09T23:23:48.702Z,100.00
2022-09-09T23:24:52.865Z,100.00
2022-09-09T23:25:57.505Z,100.00
2022-09-09T23:27:02.397Z,100.00
2022-09-09T23:28:04.621Z,100.00
2022-09-09T23:29:09.792Z,100.00
2022-09-09T23:30:12.764Z,100.00
2022-09-09T23:31:19.972Z,100.00
2022-09-09T23:32:22.953Z,100.00
2022-09-09T23:33:27.622Z,100.00
2022-09-09T23:34:32.223Z,100.00
2022-09-09T23:35:34.219Z,100.00
2022-09-09T23:36:39.298Z,100.00
2022-09-09T23:37:41.407Z,100.00
2022-09-09T23:38:49.030Z,100.00
2022-09-09T23:39:51.021Z,100.00
2022-09-09T23:40:56.106Z,100.00
2022-09-09T23:42:05.697Z,100.00
2022-09-09T23:43:09.112Z,100.00
2022-09-09T23:44:15.026Z,100.00
2022-09-09T23:45:18.522Z,100.00
2022-09-09T23:46:25.312Z,100.00
2022-09-09T23:47:30.010Z,100.00
2022-09-09T23:48:32.042Z,100.00
2022-09-09T23:49:37.350Z,100.00
2022-09-09T23:50:39.337Z,100.00
2022-09-09T23:51:44.089Z,100.00
2022-09-09T23:52:46.390Z,100.00
2022-09-09T23:53:57.006Z,100.00
2022-09-09T23:54:59.553Z,100.00
2022-09-09T23:56:04.357Z,100.00
2022-09-09T23:57:08.969Z,100.00
2022-09-09T23:58:11.081Z,100.00
2022-09-09T23:59:15.822Z,100.00
